createdAt,value
2022-10-22T00:00:56.956Z,5.45
2022-10-22T00:03:24.909Z,5.00
2022-10-22T00:05:52.708Z,5.40
2022-10-22T00:08:21.788Z,4.95
2022-10-22T00:10:49.521Z,5.65
2022-10-22T00:13:17.821Z,4.85
2022-10-22T00:15:45.730Z,5.45
2022-10-22T00:18:13.501Z,5.53
2022-10-22T00:20:41.521Z,5.03
2022-10-22T00:23:09.315Z,5.20
2022-10-22T00:25:38.407Z,5.53
2022-10-22T00:28:06.490Z,6.22
2022-10-22T00:30:34.418Z,6.53
2022-10-22T00:33:02.129Z,6.72
2022-10-22T00:35:29.988Z,6.03
2022-10-22T00:37:58.045Z,5.43
2022-10-22T00:40:26.265Z,5.50
2022-10-22T00:42:55.407Z,5.47
2022-10-22T00:45:25.622Z,5.13
2022-10-22T00:47:58.398Z,6.18
2022-10-22T00:50:30.797Z,5.55
2022-10-22T00:52:59.391Z,5.43
2022-10-22T00:55:29.003Z,5.30
2022-10-22T00:57:59.489Z,5.35
2022-10-22T01:00:27.251Z,5.47
2022-10-22T01:02:55.668Z,5.05
2022-10-22T01:05:23.890Z,4.68
2022-10-22T01:07:54.156Z,5.40
2022-10-22T01:10:35.962Z,5.32
2022-10-22T01:13:17.963Z,5.35
2022-10-22T01:15:54.166Z,5.38
2022-10-22T01:18:30.246Z,6.75
2022-10-22T01:21:06.702Z,6.00
2022-10-22T01:23:53.967Z,5.80
2022-10-22T01:26:29.351Z,5.50
2022-10-22T01:29:08.098Z,5.28
2022-10-22T01:31:39.573Z,5.53
2022-10-22T01:34:09.312Z,5.82
2022-10-22T01:36:39.830Z,6.03
2022-10-22T01:39:09.381Z,6.22
2022-10-22T01:41:37.518Z,5.60
2022-10-22T01:44:06.895Z,5.55
2022-10-22T01:46:34.946Z,5.40
2022-10-22T01:49:18.331Z,5.40
2022-10-22T01:51:57.570Z,5.10
2022-10-22T01:54:34.576Z,5.50
2022-10-22T01:57:14.026Z,5.28
2022-10-22T01:59:52.464Z,5.18
2022-10-22T02:02:33.323Z,5.30
2022-10-22T02:05:06.512Z,5.32
2022-10-22T02:07:38.826Z,4.88
2022-10-22T02:10:10.247Z,5.85
2022-10-22T02:12:39.910Z,5.45
2022-10-22T02:15:11.677Z,5.50
2022-10-22T02:17:40.798Z,5.72
2022-10-22T02:20:13.775Z,6.25
2022-10-22T02:22:42.441Z,5.72
2022-10-22T02:25:13.191Z,6.53
2022-10-22T02:27:45.535Z,5.55
2022-10-22T02:30:18.241Z,6.20
2022-10-22T02:32:52.569Z,5.00
2022-10-22T02:35:25.857Z,6.05
2022-10-22T02:37:56.180Z,6.20
2022-10-22T02:40:25.134Z,6.30
2022-10-22T02:42:53.898Z,5.90
2022-10-22T02:45:23.747Z,5.50
2022-10-22T02:47:53.245Z,5.40
2022-10-22T02:50:20.926Z,5.60
2022-10-22T02:52:48.684Z,5.15
2022-10-22T02:55:16.710Z,5.70
2022-10-22T02:57:44.524Z,5.90
2022-10-22T03:00:13.477Z,5.55
2022-10-22T03:02:42.570Z,6.95
2022-10-22T03:05:10.860Z,6.72
2022-10-22T03:07:39.249Z,5.60
2022-10-22T03:10:08.299Z,5.80
2022-10-22T03:12:35.998Z,5.82
2022-10-22T03:15:03.888Z,6.45
2022-10-22T03:17:31.817Z,6.28
2022-10-22T03:20:00.929Z,6.20
2022-10-22T03:22:33.428Z,6.00
2022-10-22T03:25:05.320Z,6.10
2022-10-22T03:27:33.129Z,5.90
2022-10-22T03:30:00.895Z,5.95
2022-10-22T03:32:28.759Z,6.13
2022-10-22T03:34:56.545Z,6.25
2022-10-22T03:37:27.103Z,6.18
2022-10-22T03:39:56.093Z,6.40
2022-10-22T03:42:24.383Z,7.75
2022-10-22T03:44:52.343Z,6.88
2022-10-22T03:47:20.136Z,6.32
2022-10-22T03:49:47.866Z,6.50
2022-10-22T03:52:16.275Z,5.93
2022-10-22T03:54:45.721Z,6.38
2022-10-22T03:57:13.492Z,6.13
2022-10-22T03:59:44.004Z,6.28
2022-10-22T04:02:13.307Z,5.93
2022-10-22T04:04:41.221Z,5.80
2022-10-22T04:07:09.573Z,6.50
2022-10-22T04:09:37.540Z,6.25
2022-10-22T04:12:07.953Z,6.57
2022-10-22T04:14:36.400Z,6.85
2022-10-22T04:17:04.593Z,6.32
2022-10-22T04:19:32.340Z,6.72
2022-10-22T04:22:00.420Z,6.50
2022-10-22T04:24:29.509Z,6.57
2022-10-22T04:26:57.492Z,7.13
2022-10-22T04:29:27.452Z,6.47
2022-10-22T04:31:55.233Z,6.40
2022-10-22T04:34:23.064Z,6.68
2022-10-22T04:36:50.803Z,7.07
2022-10-22T04:39:18.656Z,6.07
2022-10-22T04:41:46.394Z,6.75
2022-10-22T04:44:16.808Z,6.97
2022-10-22T04:46:46.898Z,6.40
2022-10-22T04:49:14.703Z,8.20
2022-10-22T04:51:42.503Z,7.70
2022-10-22T04:54:10.203Z,31.48
2022-10-22T04:56:38.431Z,17.63
2022-10-22T04:59:08.351Z,39.95
2022-10-22T05:01:41.715Z,66.72
2022-10-22T05:04:14.175Z,50.75
2022-10-22T05:06:42.099Z,31.15
2022-10-22T05:09:14.297Z,13.90
2022-10-22T05:11:45.386Z,10.43
2022-10-22T05:14:14.094Z,8.85
2022-10-22T05:16:42.091Z,9.05
2022-10-22T05:19:10.065Z,8.20
2022-10-22T05:21:39.440Z,10.15
2022-10-22T05:24:08.163Z,9.07
2022-10-22T05:26:35.872Z,8.13
2022-10-22T05:29:04.003Z,8.75
2022-10-22T05:31:31.814Z,9.63
2022-10-22T05:33:59.648Z,8.68
2022-10-22T05:36:28.086Z,8.85
2022-10-22T05:38:58.825Z,8.90
2022-10-22T05:41:28.090Z,8.80
2022-10-22T05:43:57.193Z,8.30
2022-10-22T05:46:26.703Z,8.02
2022-10-22T05:48:56.950Z,8.85
2022-10-22T05:51:25.435Z,7.97
2022-10-22T05:53:54.551Z,9.23
2022-10-22T05:56:24.021Z,8.63
2022-10-22T05:58:52.583Z,8.77
2022-10-22T06:01:21.996Z,16.13
2022-10-22T06:03:50.525Z,23.17
2022-10-22T06:06:22.423Z,58.20
2022-10-22T06:08:52.407Z,58.15
2022-10-22T06:11:22.153Z,22.27
2022-10-22T06:13:52.165Z,13.10
2022-10-22T06:16:20.472Z,26.92
2022-10-22T06:18:48.315Z,15.60
2022-10-22T06:21:17.541Z,11.30
2022-10-22T06:23:45.507Z,8.73
2022-10-22T06:26:13.460Z,8.88
2022-10-22T06:28:41.203Z,8.43
2022-10-22T06:31:11.292Z,8.95
2022-10-22T06:33:42.296Z,8.15
2022-10-22T06:36:12.825Z,8.60
2022-10-22T06:38:41.511Z,7.90
2022-10-22T06:41:11.641Z,9.35
2022-10-22T06:43:39.751Z,9.35
2022-10-22T06:46:13.704Z,8.20
2022-10-22T06:48:44.210Z,8.95
2022-10-22T06:51:13.053Z,8.40
2022-10-22T06:53:41.805Z,8.45
2022-10-22T06:56:11.750Z,8.05
2022-10-22T06:58:39.685Z,8.98
2022-10-22T07:01:11.387Z,9.07
2022-10-22T07:03:40.236Z,7.97
2022-10-22T07:06:09.842Z,8.07
2022-10-22T07:08:38.076Z,8.95
2022-10-22T07:11:11.355Z,7.50
2022-10-22T07:13:39.557Z,8.02
2022-10-22T07:16:08.577Z,7.35
2022-10-22T07:18:39.257Z,7.40
2022-10-22T07:21:08.040Z,7.40
2022-10-22T07:23:35.962Z,9.20
2022-10-22T07:26:04.164Z,6.47
2022-10-22T07:28:33.442Z,6.18
2022-10-22T07:31:01.258Z,7.22
2022-10-22T07:33:29.049Z,10.35
2022-10-22T07:36:01.416Z,5.13
2022-10-22T07:38:29.926Z,5.45
2022-10-22T07:40:57.694Z,5.03
2022-10-22T07:43:25.807Z,5.05
2022-10-22T07:45:55.664Z,4.43
2022-10-22T07:48:23.556Z,4.43
2022-10-22T07:50:52.054Z,4.13
2022-10-22T07:53:22.061Z,4.15
2022-10-22T07:55:50.468Z,3.90
2022-10-22T07:58:18.800Z,3.83
2022-10-22T08:00:47.531Z,3.90
2022-10-22T08:03:18.460Z,3.80
2022-10-22T08:05:46.919Z,3.60
2022-10-22T08:08:16.721Z,3.53
2022-10-22T08:10:46.884Z,4.07
2022-10-22T08:13:15.209Z,3.65
2022-10-22T08:18:16.546Z,3.10
2022-10-22T08:20:44.361Z,3.00
2022-10-22T08:23:12.133Z,2.65
2022-10-22T08:25:39.883Z,3.05
2022-10-22T08:28:09.004Z,2.45
2022-10-22T08:30:38.548Z,2.30
2022-10-22T08:33:07.101Z,2.60
2022-10-22T08:35:35.309Z,2.30
2022-10-22T08:38:02.986Z,2.33
2022-10-22T08:40:34.481Z,2.47
2022-10-22T08:43:35.555Z,2.33
2022-10-22T08:46:13.577Z,2.40
2022-10-22T08:48:47.608Z,2.05
2022-10-22T08:51:18.032Z,2.20
2022-10-22T08:53:56.244Z,2.22
2022-10-22T08:56:24.916Z,2.20
2022-10-22T08:59:00.080Z,2.30
2022-10-22T09:01:36.180Z,2.50
2022-10-22T09:04:12.224Z,2.08
2022-10-22T09:06:44.211Z,2.00
2022-10-22T09:09:16.163Z,2.30
2022-10-22T09:11:47.054Z,2.03
2022-10-22T09:14:18.788Z,1.95
2022-10-22T09:17:06.472Z,2.28
2022-10-22T09:19:43.069Z,2.20
2022-10-22T09:22:22.156Z,2.05
2022-10-22T09:24:53.609Z,2.22
2022-10-22T09:27:27.039Z,2.00
2022-10-22T09:29:56.294Z,2.33
2022-10-22T09:32:25.009Z,1.92
2022-10-22T09:34:57.815Z,2.10
2022-10-22T09:37:29.125Z,1.90
2022-10-22T09:39:59.844Z,2.20
2022-10-22T09:42:28.107Z,2.85
2022-10-22T09:44:59.769Z,2.20
2022-10-22T09:47:42.630Z,3.83
2022-10-22T09:50:27.187Z,2.15
2022-10-22T09:53:05.908Z,2.45
2022-10-22T09:55:33.743Z,1.80
2022-10-22T09:58:01.865Z,1.83
2022-10-22T10:00:31.321Z,2.15
2022-10-22T10:03:01.208Z,2.47
2022-10-22T10:05:31.787Z,2.55
2022-10-22T10:08:01.720Z,2.38
2022-10-22T10:10:37.555Z,1.90
2022-10-22T10:13:24.049Z,2.00
2022-10-22T10:15:59.063Z,1.65
2022-10-22T10:18:35.955Z,1.67
2022-10-22T10:23:49.552Z,1.40
2022-10-22T10:26:25.349Z,1.80
2022-10-22T10:29:24.159Z,1.55
2022-10-22T10:32:13.710Z,1.40
2022-10-22T10:34:49.181Z,1.33
2022-10-22T10:37:23.292Z,1.58
2022-10-22T10:40:16.590Z,1.27
2022-10-22T10:42:50.269Z,1.45
2022-10-22T10:45:23.017Z,1.30
2022-10-22T10:48:16.243Z,1.10
2022-10-22T10:50:55.263Z,1.58
2022-10-22T10:53:30.843Z,2.75
2022-10-22T10:56:07.119Z,1.50
2022-10-22T10:58:44.156Z,1.65
2022-10-22T11:01:21.976Z,1.20
2022-10-22T11:04:15.270Z,1.40
2022-10-22T11:06:45.673Z,2.33
2022-10-22T11:09:24.379Z,1.33
2022-10-22T11:11:58.013Z,1.52
2022-10-22T11:14:33.372Z,1.42
2022-10-22T11:17:06.062Z,1.00
2022-10-22T11:19:50.921Z,1.67
2022-10-22T11:22:26.962Z,1.10
2022-10-22T11:25:01.497Z,1.77
2022-10-22T11:27:38.102Z,1.02
2022-10-22T11:30:13.504Z,0.90
2022-10-22T11:32:44.763Z,1.30
2022-10-22T11:35:23.478Z,1.10
2022-10-22T11:37:56.553Z,1.17
2022-10-22T11:40:34.765Z,1.50
2022-10-22T11:43:06.302Z,1.23
2022-10-22T11:45:38.313Z,0.95
2022-10-22T11:48:18.810Z,1.13
2022-10-22T11:50:52.929Z,1.27
2022-10-22T11:53:31.003Z,1.20
2022-10-22T11:56:00.030Z,1.27
2022-10-22T11:58:34.447Z,1.60
2022-10-22T12:01:41.986Z,1.70
2022-10-22T12:04:23.982Z,1.60
2022-10-22T12:07:01.886Z,1.63
2022-10-22T12:09:32.737Z,1.73
2022-10-22T12:12:15.558Z,1.70
2022-10-22T12:14:54.658Z,1.70
2022-10-22T12:17:23.784Z,1.70
2022-10-22T12:20:01.981Z,1.50
2022-10-22T12:22:33.781Z,1.35
2022-10-22T12:25:03.886Z,1.15
2022-10-22T12:27:36.997Z,1.30
2022-10-22T12:30:19.740Z,1.10
2022-10-22T12:32:47.573Z,1.40
2022-10-22T12:35:18.731Z,1.38
2022-10-22T12:37:51.323Z,1.27
2022-10-22T12:40:21.289Z,1.30
2022-10-22T12:42:51.069Z,1.33
2022-10-22T12:45:18.892Z,1.40
2022-10-22T12:47:47.820Z,0.98
2022-10-22T12:50:21.145Z,1.02
2022-10-22T12:52:50.658Z,1.00
2022-10-22T12:55:20.576Z,1.00
2022-10-22T12:57:49.171Z,1.30
2022-10-22T13:00:22.481Z,1.00
2022-10-22T13:02:50.520Z,1.20
2022-10-22T13:05:23.665Z,1.10
2022-10-22T13:07:54.694Z,1.70
2022-10-22T13:10:26.615Z,1.55
2022-10-22T13:12:56.969Z,1.10
2022-10-22T13:15:37.072Z,1.00
2022-10-22T13:18:07.869Z,1.00
2022-10-22T13:20:37.343Z,1.10
2022-10-22T13:23:07.107Z,2.05
2022-10-22T13:25:37.247Z,1.30
2022-10-22T13:28:20.910Z,0.85
2022-10-22T13:30:54.201Z,0.90
2022-10-22T13:33:26.574Z,1.02
2022-10-22T13:35:56.230Z,0.90
2022-10-22T13:38:26.975Z,0.70
2022-10-22T13:40:55.510Z,1.13
2022-10-22T13:43:23.971Z,0.68
2022-10-22T13:45:55.272Z,0.90
2022-10-22T13:48:25.730Z,0.98
2022-10-22T13:50:54.558Z,0.80
2022-10-22T13:53:26.352Z,0.75
2022-10-22T13:55:54.572Z,0.75
2022-10-22T13:58:24.953Z,1.08
2022-10-22T14:00:55.583Z,0.70
2022-10-22T14:03:27.353Z,0.68
2022-10-22T14:05:55.185Z,0.80
2022-10-22T14:08:26.539Z,0.90
2022-10-22T14:10:55.089Z,0.80
2022-10-22T14:13:23.464Z,0.90
2022-10-22T14:15:53.132Z,0.80
2022-10-22T14:18:26.438Z,0.70
2022-10-22T14:20:56.037Z,0.90
2022-10-22T14:23:27.697Z,0.98
2022-10-22T14:25:56.265Z,1.20
2022-10-22T14:28:24.053Z,1.10
2022-10-22T14:30:52.510Z,0.90
2022-10-22T14:33:27.248Z,1.33
2022-10-22T14:35:59.222Z,0.90
2022-10-22T14:38:28.696Z,1.20
2022-10-22T14:40:56.674Z,1.17
2022-10-22T14:43:26.909Z,1.15
2022-10-22T14:45:54.842Z,1.10
2022-10-22T14:48:22.795Z,0.90
2022-10-22T14:50:50.919Z,0.88
2022-10-22T14:53:18.601Z,0.98
2022-10-22T14:55:49.077Z,1.30
2022-10-22T14:58:17.137Z,1.00
2022-10-22T15:00:44.933Z,0.90
2022-10-22T15:03:13.024Z,1.08
2022-10-22T15:05:43.360Z,0.93
2022-10-22T15:08:11.825Z,1.05
2022-10-22T15:10:40.158Z,0.93
2022-10-22T15:13:09.445Z,1.02
2022-10-22T15:15:39.919Z,1.08
2022-10-22T15:18:07.887Z,1.05
2022-10-22T15:20:35.698Z,2.50
2022-10-22T15:23:03.525Z,1.60
2022-10-22T15:25:31.351Z,1.30
2022-10-22T15:28:03.359Z,1.30
2022-10-22T15:30:36.649Z,1.20
2022-10-22T15:33:04.539Z,1.48
2022-10-22T15:35:32.253Z,1.50
2022-10-22T15:37:59.987Z,1.13
2022-10-22T15:40:27.798Z,1.35
2022-10-22T15:42:55.491Z,1.20
2022-10-22T15:45:25.156Z,1.40
2022-10-22T15:47:54.201Z,1.80
2022-10-22T15:50:21.876Z,2.40
2022-10-22T15:52:49.594Z,2.50
2022-10-22T15:55:17.391Z,2.50
2022-10-22T15:57:45.271Z,2.50
2022-10-22T16:00:14.144Z,8.48
2022-10-22T16:02:42.842Z,4.40
2022-10-22T16:05:12.297Z,3.35
2022-10-22T16:07:40.317Z,2.30
2022-10-22T16:10:12.576Z,2.67
2022-10-22T16:12:41.311Z,4.07
2022-10-22T16:15:10.517Z,12.20
2022-10-22T16:17:38.254Z,11.32
2022-10-22T16:20:06.922Z,9.45
2022-10-22T16:22:35.995Z,10.60
2022-10-22T16:25:03.901Z,35.30
2022-10-22T16:27:31.648Z,15.45
2022-10-22T16:29:59.487Z,7.00
2022-10-22T16:32:27.269Z,4.80
2022-10-22T16:34:54.930Z,3.40
2022-10-22T16:37:22.624Z,3.78
2022-10-22T16:39:51.735Z,9.85
2022-10-22T16:42:19.457Z,10.18
2022-10-22T16:44:47.171Z,7.70
2022-10-22T16:47:15.377Z,8.63
2022-10-22T16:49:43.129Z,9.63
2022-10-22T16:52:10.849Z,9.52
2022-10-22T16:54:38.597Z,6.80
2022-10-22T16:57:07.703Z,8.52
2022-10-22T16:59:35.757Z,10.73
2022-10-22T17:04:32.235Z,5.72
2022-10-22T17:06:59.945Z,6.28
2022-10-22T17:09:27.847Z,5.28
2022-10-22T17:11:56.137Z,5.22
2022-10-22T17:14:25.308Z,5.28
2022-10-22T17:16:53.933Z,7.22
2022-10-22T17:19:22.697Z,6.20
2022-10-22T17:21:51.376Z,5.55
2022-10-22T17:24:19.391Z,7.00
2022-10-22T17:26:47.632Z,8.27
2022-10-22T17:29:15.344Z,10.50
2022-10-22T17:31:44.483Z,7.35
2022-10-22T17:34:17.512Z,6.40
2022-10-22T17:36:45.901Z,4.40
2022-10-22T17:39:18.593Z,5.25
2022-10-22T17:41:46.853Z,3.72
2022-10-22T17:44:16.542Z,3.47
2022-10-22T17:46:45.932Z,3.03
2022-10-22T17:49:18.103Z,2.60
2022-10-22T17:51:46.195Z,2.30
2022-10-22T17:54:14.700Z,2.30
2022-10-22T17:56:42.444Z,2.10
2022-10-22T17:59:12.797Z,2.65
2022-10-22T18:01:45.230Z,2.50
2022-10-22T18:04:17.010Z,2.75
2022-10-22T18:06:46.616Z,3.13
2022-10-22T18:09:18.461Z,3.38
2022-10-22T18:11:47.507Z,3.10
2022-10-22T18:14:15.622Z,3.63
2022-10-22T18:16:43.420Z,3.92
2022-10-22T18:19:12.251Z,3.53
2022-10-22T18:21:41.329Z,4.18
2022-10-22T18:24:10.356Z,5.35
2022-10-22T18:26:38.072Z,12.55
2022-10-22T18:29:05.775Z,11.07
2022-10-22T18:31:33.618Z,10.95
2022-10-22T18:34:01.373Z,4.38
2022-10-22T18:36:29.287Z,4.10
2022-10-22T18:39:00.193Z,6.97
2022-10-22T18:41:29.331Z,4.03
2022-10-22T18:43:58.335Z,4.03
2022-10-22T18:46:27.250Z,4.63
2022-10-22T18:48:55.971Z,4.50
2022-10-22T18:51:25.441Z,7.07
2022-10-22T18:54:05.376Z,5.82
2022-10-22T18:56:41.533Z,5.05
2022-10-22T18:59:16.099Z,5.63
2022-10-22T19:01:43.940Z,3.83
2022-10-22T19:04:12.996Z,3.67
2022-10-22T19:06:45.089Z,3.90
2022-10-22T19:09:14.533Z,3.25
2022-10-22T19:11:44.754Z,3.58
2022-10-22T19:14:14.602Z,3.42
2022-10-22T19:16:42.637Z,3.83
2022-10-22T19:19:10.344Z,3.72
2022-10-22T19:21:38.910Z,3.35
2022-10-22T19:24:07.723Z,3.83
2022-10-22T19:26:35.706Z,4.28
2022-10-22T19:29:05.257Z,4.60
2022-10-22T19:31:33.492Z,4.25
2022-10-22T19:34:03.152Z,4.63
2022-10-22T19:36:32.513Z,4.45
2022-10-22T19:39:01.700Z,4.57
2022-10-22T19:41:31.467Z,4.45
2022-10-22T19:44:00.888Z,4.30
2022-10-22T19:46:32.422Z,4.20
2022-10-22T19:49:00.846Z,4.30
2022-10-22T19:51:30.734Z,4.20
2022-10-22T19:54:00.461Z,3.65
2022-10-22T19:56:28.829Z,3.78
2022-10-22T19:58:56.617Z,3.67
2022-10-22T20:01:24.726Z,3.75
2022-10-22T20:03:54.411Z,3.65
2022-10-22T20:06:23.147Z,3.83
2022-10-22T20:08:53.775Z,3.50
2022-10-22T20:11:26.367Z,3.63
2022-10-22T20:13:54.927Z,2.90
2022-10-22T20:16:25.087Z,3.03
2022-10-22T20:18:54.545Z,3.30
2022-10-22T20:21:22.685Z,3.08
2022-10-22T20:23:54.062Z,3.45
2022-10-22T20:26:24.255Z,3.00
2022-10-22T20:28:53.271Z,3.17
2022-10-22T20:31:24.016Z,3.03
2022-10-22T20:33:52.184Z,2.97
2022-10-22T20:36:23.643Z,3.80
2022-10-22T20:38:52.578Z,4.00
2022-10-22T20:41:22.536Z,4.03
2022-10-22T20:43:52.765Z,3.72
2022-10-22T20:46:23.360Z,4.57
2022-10-22T20:48:53.144Z,4.70
2022-10-22T20:51:22.584Z,3.88
2022-10-22T20:53:51.133Z,5.00
2022-10-22T20:56:19.552Z,3.95
2022-10-22T20:58:48.950Z,3.60
2022-10-22T21:01:21.424Z,3.60
2022-10-22T21:03:50.004Z,3.15
2022-10-22T21:06:20.787Z,3.22
2022-10-22T21:08:50.318Z,3.22
2022-10-22T21:11:18.182Z,2.90
2022-10-22T21:13:45.944Z,3.53
2022-10-22T21:16:15.253Z,2.97
2022-10-22T21:18:43.147Z,3.15
2022-10-22T21:21:11.649Z,3.63
2022-10-22T21:23:39.968Z,3.00
2022-10-22T21:26:09.124Z,3.75
2022-10-22T21:28:37.946Z,3.25
2022-10-22T21:31:07.311Z,2.63
2022-10-22T21:33:37.601Z,2.80
2022-10-22T21:36:06.920Z,2.90
2022-10-22T21:38:35.987Z,3.15
2022-10-22T21:41:06.162Z,2.92
2022-10-22T21:43:37.345Z,3.38
2022-10-22T21:46:08.076Z,3.55
2022-10-22T21:48:37.088Z,3.53
2022-10-22T21:51:09.948Z,4.03
2022-10-22T21:53:38.378Z,3.50
2022-10-22T21:56:07.482Z,3.38
2022-10-22T21:58:37.264Z,3.38
2022-10-22T22:01:05.247Z,3.90
2022-10-22T22:03:33.100Z,3.63
2022-10-22T22:06:01.675Z,4.05
2022-10-22T22:08:29.998Z,3.90
2022-10-22T22:11:02.307Z,3.70
2022-10-22T22:13:30.371Z,3.63
2022-10-22T22:16:02.933Z,4.97
2022-10-22T22:18:31.021Z,4.65
2022-10-22T22:20:59.551Z,3.92
2022-10-22T22:23:27.761Z,3.70
2022-10-22T22:25:59.424Z,3.70
2022-10-22T22:28:27.268Z,3.83
2022-10-22T22:30:54.999Z,3.50
2022-10-22T22:33:24.145Z,3.08
2022-10-22T22:35:52.087Z,3.22
2022-10-22T22:38:19.805Z,3.20
2022-10-22T22:40:47.537Z,3.22
2022-10-22T22:43:15.233Z,3.28
2022-10-22T22:45:42.997Z,3.55
2022-10-22T22:48:10.721Z,3.63
2022-10-22T22:50:39.874Z,4.13
2022-10-22T22:53:07.561Z,4.00
2022-10-22T22:55:35.415Z,4.50
2022-10-22T22:58:03.091Z,4.30
2022-10-22T23:00:31.122Z,3.60
2022-10-22T23:02:58.850Z,3.83
2022-10-22T23:05:26.550Z,3.05
2022-10-22T23:07:55.636Z,2.72
2022-10-22T23:10:23.433Z,2.95
2022-10-22T23:12:51.063Z,3.65
2022-10-22T23:15:18.752Z,2.70
2022-10-22T23:17:46.623Z,2.70
2022-10-22T23:20:14.335Z,3.55
2022-10-22T23:22:42.516Z,3.88
2022-10-22T23:25:11.923Z,3.90
2022-10-22T23:27:39.817Z,3.20
2022-10-22T23:30:09.220Z,3.55
2022-10-22T23:32:37.158Z,3.10
2022-10-22T23:35:05.256Z,2.70
2022-10-22T23:37:32.977Z,2.90
2022-10-22T23:40:00.656Z,2.95
2022-10-22T23:42:29.725Z,2.67
2022-10-22T23:44:57.868Z,3.10
2022-10-22T23:47:25.639Z,3.25
2022-10-22T23:49:53.479Z,3.20
2022-10-22T23:52:21.096Z,3.03
2022-10-22T23:54:49.733Z,3.20
2022-10-22T23:57:17.510Z,3.47
2022-10-22T23:59:46.645Z,4.20
